createdAt,value
2023-03-15T00:02:37.630Z,13.09
2023-03-15T00:07:40.348Z,13.00
2023-03-15T00:12:43.089Z,13.03
2023-03-15T00:17:45.371Z,12.98
2023-03-15T00:22:47.664Z,12.91
2023-03-15T00:27:49.811Z,13.04
2023-03-15T00:32:56.514Z,12.98
2023-03-15T00:37:58.714Z,12.83
2023-03-15T00:43:00.798Z,12.39
2023-03-15T00:48:03.008Z,12.18
2023-03-15T00:53:05.192Z,11.89
2023-03-15T00:58:07.276Z,11.88
2023-03-15T01:03:10.307Z,12.07
2023-03-15T01:08:12.454Z,11.78
2023-03-15T01:13:14.593Z,11.55
2023-03-15T01:18:17.288Z,11.58
2023-03-15T01:23:19.474Z,11.03
2023-03-15T01:28:22.232Z,10.86
2023-03-15T01:33:24.586Z,11.21
2023-03-15T01:38:26.812Z,11.45
2023-03-15T01:43:32.195Z,11.27
2023-03-15T01:49:10.421Z,11.38
2023-03-15T01:54:20.172Z,11.16
2023-03-15T01:59:28.144Z,11.12
2023-03-15T02:04:36.064Z,11.13
2023-03-15T02:10:07.712Z,11.01
2023-03-15T02:15:11.913Z,10.85
2023-03-15T02:20:38.381Z,10.90
2023-03-15T02:25:53.029Z,10.93
2023-03-15T02:30:55.862Z,11.06
2023-03-15T02:36:15.128Z,11.04
2023-03-15T02:41:28.725Z,10.82
2023-03-15T02:46:31.193Z,10.83
2023-03-15T02:51:34.640Z,10.87
2023-03-15T02:56:36.943Z,11.00
2023-03-15T03:01:39.582Z,11.13
2023-03-15T03:06:44.266Z,10.89
2023-03-15T03:11:46.486Z,10.49
2023-03-15T03:16:48.719Z,10.54
2023-03-15T03:21:53.070Z,10.73
2023-03-15T03:26:58.967Z,10.65
2023-03-15T03:32:01.269Z,10.80
2023-03-15T03:37:03.609Z,10.58
2023-03-15T03:42:05.937Z,10.83
2023-03-15T03:47:08.556Z,10.74
2023-03-15T03:52:10.834Z,10.57
2023-03-15T03:57:12.970Z,10.51
2023-03-15T04:02:15.250Z,10.38
2023-03-15T04:07:17.544Z,10.57
2023-03-15T04:12:20.078Z,10.70
2023-03-15T04:17:22.224Z,10.76
2023-03-15T04:22:24.351Z,10.71
2023-03-15T04:27:26.534Z,10.76
2023-03-15T04:32:28.634Z,10.85
2023-03-15T04:37:32.693Z,11.00
2023-03-15T04:42:34.840Z,10.98
2023-03-15T04:47:37.322Z,11.14
2023-03-15T04:52:39.817Z,11.14
2023-03-15T04:57:41.996Z,11.24
2023-03-15T05:02:44.928Z,10.85
2023-03-15T05:07:47.062Z,10.92
2023-03-15T05:12:49.318Z,10.83
2023-03-15T05:17:55.358Z,10.81
2023-03-15T05:22:57.983Z,11.11
2023-03-15T05:28:00.186Z,11.27
2023-03-15T05:33:05.345Z,11.06
2023-03-15T05:38:07.466Z,11.09
2023-03-15T05:43:09.750Z,10.89
2023-03-15T05:48:12.254Z,10.59
2023-03-15T05:53:14.504Z,10.83
2023-03-15T05:58:16.675Z,11.14
2023-03-15T06:03:19.182Z,11.02
2023-03-15T06:08:21.277Z,10.91
2023-03-15T06:13:23.446Z,11.08
2023-03-15T06:18:25.681Z,11.16
2023-03-15T06:23:27.802Z,11.40
2023-03-15T06:28:29.942Z,11.38
2023-03-15T06:33:32.848Z,11.54
2023-03-15T06:38:35.055Z,11.41
2023-03-15T06:43:37.186Z,11.48
2023-03-15T06:48:39.562Z,11.75
2023-03-15T06:53:41.843Z,11.63
2023-03-15T06:58:44.305Z,11.64
2023-03-15T07:03:46.860Z,11.61
2023-03-15T07:08:49.003Z,11.61
2023-03-15T07:13:51.738Z,11.49
2023-03-15T07:18:55.942Z,11.39
2023-03-15T07:23:58.179Z,11.44
2023-03-15T07:29:00.710Z,11.47
2023-03-15T07:34:03.116Z,11.64
2023-03-15T07:39:05.301Z,11.75
2023-03-15T07:44:07.587Z,11.92
2023-03-15T07:49:09.690Z,11.91
2023-03-15T07:54:12.665Z,12.00
2023-03-15T07:59:15.889Z,12.01
2023-03-15T08:04:18.017Z,11.68
2023-03-15T08:09:20.105Z,11.73
2023-03-15T08:14:22.288Z,11.87
2023-03-15T08:19:24.576Z,12.00
2023-03-15T08:24:27.746Z,12.06
2023-03-15T08:29:29.939Z,12.22
2023-03-15T08:34:35.047Z,12.12
2023-03-15T08:39:38.009Z,12.06
2023-03-15T08:44:40.076Z,12.34
2023-03-15T08:49:42.230Z,12.49
2023-03-15T08:54:44.625Z,12.43
2023-03-15T08:59:46.801Z,12.47
2023-03-15T09:04:48.980Z,12.40
2023-03-15T09:09:54.684Z,12.49
2023-03-15T09:14:56.844Z,12.52
2023-03-15T09:19:59.030Z,12.69
2023-03-15T09:25:01.195Z,12.79
2023-03-15T09:30:04.192Z,12.89
2023-03-15T09:35:10.741Z,12.98
2023-03-15T09:40:30.632Z,12.93
2023-03-15T09:45:55.928Z,13.00
2023-03-15T09:51:05.528Z,13.22
2023-03-15T09:56:56.835Z,13.34
2023-03-15T10:02:02.728Z,13.50
2023-03-15T10:07:10.965Z,13.83
2023-03-15T10:12:23.504Z,14.09
2023-03-15T10:18:00.314Z,14.19
2023-03-15T10:23:29.817Z,14.38
2023-03-15T10:28:37.908Z,14.52
2023-03-15T10:33:44.596Z,14.61
2023-03-15T10:38:48.737Z,14.75
2023-03-15T10:44:00.737Z,14.77
2023-03-15T10:49:16.488Z,14.83
2023-03-15T10:54:21.652Z,14.95
2023-03-15T10:59:26.492Z,15.16
2023-03-15T11:04:28.983Z,15.05
2023-03-15T11:09:42.981Z,15.02
2023-03-15T11:14:50.418Z,15.10
2023-03-15T11:20:14.403Z,15.22
2023-03-15T11:25:19.484Z,15.23
2023-03-15T11:30:29.473Z,15.18
2023-03-15T11:35:48.512Z,15.17
2023-03-15T11:40:57.269Z,15.25
2023-03-15T11:46:05.093Z,15.49
2023-03-15T11:51:08.935Z,15.47
2023-03-15T11:56:24.392Z,15.62
2023-03-15T12:01:27.184Z,15.74
2023-03-15T12:06:38.362Z,16.01
2023-03-15T12:11:43.184Z,16.06
2023-03-15T12:16:46.884Z,16.05
2023-03-15T12:21:58.599Z,16.03
2023-03-15T12:27:19.399Z,16.08
2023-03-15T12:32:21.935Z,16.11
2023-03-15T12:37:44.999Z,16.01
2023-03-15T12:42:47.129Z,15.65
2023-03-15T12:47:51.932Z,15.71
2023-03-15T12:53:00.889Z,15.84
2023-03-15T12:58:05.079Z,16.43
2023-03-15T13:03:12.484Z,16.69
2023-03-15T13:08:22.427Z,17.18
2023-03-15T13:13:48.697Z,17.35
2023-03-15T13:19:05.681Z,17.65
2023-03-15T13:24:19.993Z,17.89
2023-03-15T13:29:31.239Z,18.06
2023-03-15T13:34:34.598Z,18.21
2023-03-15T13:39:36.784Z,18.50
2023-03-15T13:44:39.275Z,18.76
2023-03-15T13:49:41.396Z,18.90
2023-03-15T13:54:44.828Z,19.22
2023-03-15T13:59:54.797Z,19.34
2023-03-15T14:05:00.183Z,19.57
2023-03-15T14:10:29.658Z,19.78
2023-03-15T14:15:43.380Z,19.79
2023-03-15T14:20:48.252Z,19.77
2023-03-15T14:26:16.406Z,20.13
2023-03-15T14:31:25.973Z,20.45
2023-03-15T14:36:42.151Z,20.66
2023-03-15T14:41:45.234Z,20.80
2023-03-15T14:46:48.995Z,20.54
2023-03-15T14:51:57.672Z,19.67
2023-03-15T14:57:00.289Z,19.16
2023-03-15T15:02:03.321Z,19.70
2023-03-15T15:07:06.209Z,19.99
2023-03-15T15:12:11.566Z,20.03
2023-03-15T15:17:13.721Z,19.98
2023-03-15T15:22:17.321Z,20.41
2023-03-15T15:27:19.389Z,20.84
2023-03-15T15:32:21.522Z,21.11
2023-03-15T15:37:23.656Z,21.34
2023-03-15T15:42:26.110Z,21.64
2023-03-15T15:47:28.178Z,22.13
2023-03-15T15:52:30.459Z,22.17
2023-03-15T15:57:32.851Z,22.69
2023-03-15T16:02:36.049Z,23.11
2023-03-15T16:07:38.676Z,22.26
2023-03-15T16:12:40.753Z,20.47
2023-03-15T16:17:43.324Z,18.83
2023-03-15T16:22:51.994Z,18.55
2023-03-15T16:27:55.835Z,18.30
2023-03-15T16:32:59.338Z,17.94
2023-03-15T16:38:02.218Z,17.73
2023-03-15T16:43:06.602Z,17.39
2023-03-15T16:48:17.353Z,17.17
2023-03-15T16:53:21.573Z,16.82
2023-03-15T16:58:33.881Z,16.81
2023-03-15T17:03:36.585Z,16.63
2023-03-15T17:08:51.353Z,16.44
2023-03-15T17:13:53.773Z,16.31
2023-03-15T17:18:56.242Z,16.18
2023-03-15T17:23:58.685Z,16.14
2023-03-15T17:29:03.239Z,16.22
2023-03-15T17:34:05.456Z,16.03
2023-03-15T17:39:10.982Z,15.94
2023-03-15T17:44:13.217Z,15.81
2023-03-15T17:49:16.670Z,15.68
2023-03-15T17:54:21.045Z,15.60
2023-03-15T17:59:23.297Z,15.48
2023-03-15T18:04:25.451Z,15.30
2023-03-15T18:09:27.641Z,15.19
2023-03-15T18:14:31.314Z,15.16
2023-03-15T18:19:33.764Z,15.14
2023-03-15T18:24:36.268Z,15.13
2023-03-15T18:29:38.622Z,15.04
2023-03-15T18:34:41.522Z,14.93
2023-03-15T18:39:43.651Z,14.93
2023-03-15T18:44:45.887Z,14.87
2023-03-15T18:49:49.563Z,14.89
2023-03-15T18:54:53.821Z,14.68
2023-03-15T18:59:56.224Z,14.59
2023-03-15T19:04:59.653Z,14.66
2023-03-15T19:10:02.885Z,14.68
2023-03-15T19:15:06.016Z,14.51
2023-03-15T19:20:12.373Z,14.45
2023-03-15T19:25:14.778Z,14.29
2023-03-15T19:30:21.240Z,14.41
2023-03-15T19:35:23.949Z,14.31
2023-03-15T19:40:26.411Z,14.28
2023-03-15T19:45:28.585Z,14.32
2023-03-15T19:50:32.853Z,14.26
2023-03-15T19:55:36.266Z,14.04
2023-03-15T20:00:38.525Z,13.72
2023-03-15T20:05:41.698Z,13.64
2023-03-15T20:10:44.719Z,13.49
2023-03-15T20:15:47.816Z,13.49
2023-03-15T20:20:51.735Z,13.66
2023-03-15T20:26:04.638Z,13.48
2023-03-15T20:31:08.863Z,13.37
2023-03-15T20:36:11.721Z,13.23
2023-03-15T20:41:14.676Z,13.17
2023-03-15T20:46:19.250Z,13.15
2023-03-15T20:51:21.653Z,13.17
2023-03-15T20:56:24.144Z,13.08
2023-03-15T21:01:26.647Z,12.96
2023-03-15T21:06:29.681Z,12.99
2023-03-15T21:11:32.693Z,13.01
2023-03-15T21:16:35.764Z,13.07
2023-03-15T21:21:38.607Z,13.10
2023-03-15T21:26:44.314Z,12.79
2023-03-15T21:31:46.571Z,12.86
2023-03-15T21:36:49.670Z,12.60
2023-03-15T21:41:52.569Z,12.65
2023-03-15T21:46:54.694Z,12.45
2023-03-15T21:51:57.112Z,12.62
2023-03-15T21:56:59.325Z,12.77
2023-03-15T22:02:02.938Z,13.13
2023-03-15T22:07:05.023Z,13.00
2023-03-15T22:50:44.085Z,12.40
2023-03-15T22:55:46.195Z,12.55
2023-03-15T23:00:48.997Z,12.38
2023-03-15T23:05:51.198Z,12.13
2023-03-15T23:10:53.406Z,12.41
2023-03-15T23:15:55.718Z,12.39
2023-03-15T23:21:07.593Z,12.50
2023-03-15T23:26:11.435Z,12.47
2023-03-15T23:31:13.727Z,12.28
2023-03-15T23:36:15.972Z,12.22
2023-03-15T23:41:18.542Z,12.11
2023-03-15T23:46:20.741Z,12.20
2023-03-15T23:51:23.013Z,12.03
2023-03-15T23:56:25.374Z,12.05
